PWSweather.com
Personal Weather Stations
Station Observations
KNYSALTS1
Hessville, Fort Plain, NY

HessvilleFort Plain, NY

Lat: 42.86430704, Lon: -74.72141266

Elevation: 1041

Station Type: Davis Vantage Pro2 Plus

http://indiantrailweather.com

Latest ConditionsUpdated 10:00:07 PM EDT Monday, Mar 27, 2017
Currently Today's Max Today's Min Today's Average
Temperature 36.4°F2.4°C 38.3°F3.5°C 32.3°F0.2°C 34.8°F1.6°C
Dew Point 35.1°F1.7°C 37.0°F2.8°C 30.6°F-0.8°C 33.2°F0.7°C
Winds 1.3 mph S2.1 kmh S 6.5 mph E10.5 kmh E - 1.9 mph 3.1 kmh
Wind Gusts 2.0 mph3.2 kmh 9.0 mph14.5 kmh - -
Humidity 95% 95% 89% 94%
Pressure 29.99 in1015.6 mb 30.25 in1024.4 mb 29.98 in1015.2 mb -
Precipitation - 0.18 in4.6 mm - -
Hour Temp Dew Point Humidity Winds Wind Gusts Pressure Precip Precip Rate Daily Precip Total
10:00 PM 36.4°F2.4°C 35.1°F1.7°C 95% 1.3 mph S2.1 kmh S 2.0 mph3.2 kmh 29.99 in1015.6 mb - 0.00 in0.0 mm 0.18 in4.6 mm
09:00 PM 36.0°F2.2°C 34.7°F1.5°C 95% 2.2 mph SSE3.5 kmh SSE 4.0 mph6.4 kmh 29.99 in1015.6 mb - 0.00 in0.0 mm 0.18 in4.6 mm
08:00 PM 37.9°F3.3°C 36.3°F2.4°C 94% Calm Calm -- 29.98 in1015.2 mb - 0.00 in0.0 mm 0.18 in4.6 mm
07:00 PM 38.3°F3.5°C 37.0°F2.8°C 95% 0.3 mph SSE0.5 kmh SSE 2.0 mph3.2 kmh 29.98 in1015.2 mb - 0.00 in0.0 mm 0.18 in4.6 mm
06:00 PM 38.1°F3.4°C 36.8°F2.7°C 95% Calm Calm -- 29.98 in1015.2 mb - 0.00 in0.0 mm 0.18 in4.6 mm
05:00 PM 37.0°F2.8°C 35.7°F2.1°C 95% Calm Calm 1.0 mph1.6 kmh 29.98 in1015.2 mb - 0.00 in0.0 mm 0.18 in4.6 mm
04:00 PM 37.0°F2.8°C 35.7°F2.1°C 95% 1.9 mph E3.1 kmh E 2.0 mph3.2 kmh 29.99 in1015.6 mb - 0.00 in0.0 mm 0.18 in4.6 mm
03:00 PM 36.7°F2.6°C 35.4°F1.9°C 95% 1.8 mph E2.9 kmh E 2.0 mph3.2 kmh 30.00 in1015.9 mb - 0.00 in0.0 mm 0.18 in4.6 mm
02:00 PM 35.8°F2.1°C 34.5°F1.4°C 95% Calm Calm -- 30.01 in1016.3 mb - 0.00 in0.0 mm 0.18 in4.6 mm
01:00 PM 35.5°F1.9°C 34.2°F1.2°C 95% 1.4 mph E2.3 kmh E 2.0 mph3.2 kmh 30.02 in1016.6 mb - 0.00 in0.0 mm 0.18 in4.6 mm
12:00 PM 35.2°F1.8°C 33.9°F1.1°C 95% Calm Calm -- 30.04 in1017.3 mb - 0.00 in0.0 mm 0.18 in4.6 mm
11:00 AM 34.3°F1.3°C 33.0°F0.6°C 95% 1.2 mph E1.9 kmh E 2.0 mph3.2 kmh 30.05 in1017.6 mb - 0.00 in0.0 mm 0.18 in4.6 mm
10:00 AM 33.9°F1.1°C 32.6°F0.3°C 95% 1.6 mph ENE2.6 kmh ENE 2.0 mph3.2 kmh 30.06 in1017.9 mb - 0.00 in0.0 mm 0.18 in4.6 mm
09:00 AM 33.2°F0.7°C 31.9°F-0.1°C 95% 1.4 mph SE2.3 kmh SE 2.0 mph3.2 kmh 30.06 in1017.9 mb - 0.00 in0.0 mm 0.18 in4.6 mm
08:00 AM 32.5°F0.3°C 31.2°F-0.4°C 95% 1.5 mph ESE2.4 kmh ESE 3.0 mph4.8 kmh 30.07 in1018.3 mb - 0.01 in0.3 mm 0.18 in4.6 mm
07:00 AM 32.4°F0.2°C 30.9°F-0.6°C 94% 0.5 mph E0.8 kmh E 1.0 mph1.6 kmh 30.08 in1018.6 mb - 0.07 in1.8 mm 0.17 in4.3 mm
06:00 AM 32.3°F0.2°C 30.8°F-0.7°C 94% 2.3 mph SE3.7 kmh SE 4.0 mph6.4 kmh 30.09 in1019.0 mb - 0.02 in0.5 mm 0.09 in2.3 mm
05:00 AM 32.5°F0.3°C 31.0°F-0.6°C 94% 2.7 mph E4.3 kmh E 4.0 mph6.4 kmh 30.10 in1019.3 mb - 0.04 in1.0 mm 0.07 in1.8 mm
04:00 AM 32.4°F0.2°C 30.6°F-0.8°C 93% 2.5 mph E4.0 kmh E 5.0 mph8.0 kmh 30.12 in1020.0 mb - 0.03 in0.8 mm 0.03 in0.8 mm
03:00 AM 32.7°F0.4°C 30.6°F-0.8°C 92% 4.8 mph ESE7.7 kmh ESE 6.0 mph9.7 kmh 30.15 in1021.0 mb - 0.00 in0.0 mm 0.00 in0.0 mm
02:00 AM 33.4°F0.8°C 31.1°F-0.5°C 91% 6.5 mph E10.5 kmh E 9.0 mph14.5 kmh 30.18 in1022.0 mb - 0.00 in0.0 mm 0.00 in0.0 mm
01:00 AM 33.4°F0.8°C 31.0°F-0.6°C 91% 4.5 mph E7.2 kmh E 6.0 mph9.7 kmh 30.21 in1023.0 mb - 0.00 in0.0 mm 0.00 in0.0 mm
12:00 AM 33.5°F0.8°C 30.6°F-0.8°C 89% 5.3 mph E8.5 kmh E 8.0 mph12.9 kmh 30.25 in1024.4 mb - 0.00 in0.0 mm 0.00 in0.0 mm